Agudo, Brazil
Current Conditions -  °F | °C
As of 2:00 PM on Wednesday 26 Nov 2014 (Local Time) from SBSM Reporting Station
Broken Clouds Broken Clouds  
Wind Chill: 82°   Ceiling: 3500
Heat Index: 85°   Visibility: 6mi
Dew Point: 66°   Wind: 7mph
Humidity: 58%   Direction: 120°ESE
Pressure: 29.85"   Gusts: NA
Location:  29.65°S, 53.24°W
Report Text: SBSM 261600Z 12006KT 070V170 9999 BKN035 28/19 Q1011
Loading
Personal Weather Stations






























Interactive Weather Map New forecast layout! Learn more

10-Day Weather Forecast

Advertisements
Track Severe Weather on mobile